createdAt,value
2019-04-03T00:00:13.702Z,50.35
2019-04-03T00:02:40.174Z,50.17
2019-04-03T00:05:06.453Z,50.31
2019-04-03T00:07:33.763Z,50.30
2019-04-03T00:10:06.632Z,49.99
2019-04-03T00:12:33.739Z,49.56
2019-04-03T00:15:00.424Z,49.83
2019-04-03T00:17:26.801Z,50.05
2019-04-03T00:19:53.353Z,49.89
2019-04-03T00:22:21.498Z,49.89
2019-04-03T00:24:48.142Z,49.90
2019-04-03T00:27:14.515Z,49.91
2019-04-03T00:29:41.037Z,49.61
2019-04-03T00:32:07.526Z,49.84
2019-04-03T00:34:33.839Z,49.70
2019-04-03T00:37:00.717Z,49.62
2019-04-03T00:39:27.276Z,49.64
2019-04-03T00:41:54.630Z,49.65
2019-04-03T00:44:23.983Z,49.83
2019-04-03T00:46:49.849Z,50.09
2019-04-03T00:49:16.411Z,50.04
2019-04-03T00:51:42.784Z,50.01
2019-04-03T00:54:09.263Z,50.05
2019-04-03T00:56:35.888Z,50.19
2019-04-03T00:59:02.419Z,50.16
2019-04-03T01:01:28.779Z,50.00
2019-04-03T01:03:55.267Z,50.05
2019-04-03T01:06:21.860Z,50.00
2019-04-03T01:08:48.475Z,50.13
2019-04-03T01:11:14.980Z,50.52
2019-04-03T01:13:41.581Z,50.17
2019-04-03T01:16:08.050Z,50.34
2019-04-03T01:18:35.360Z,50.43
2019-04-03T01:21:02.451Z,50.20
2019-04-03T01:23:28.889Z,50.43
2019-04-03T01:25:55.360Z,50.44
2019-04-03T01:28:22.162Z,50.61
2019-04-03T01:30:48.821Z,50.46
2019-04-03T01:33:16.481Z,50.42
2019-04-03T01:35:43.603Z,50.44
2019-04-03T01:38:10.069Z,50.38
2019-04-03T01:40:36.691Z,50.31
2019-04-03T01:43:03.448Z,50.48
2019-04-03T01:45:29.974Z,50.48
2019-04-03T01:47:58.199Z,50.56
2019-04-03T01:50:26.805Z,50.58
2019-04-03T01:52:53.936Z,50.65
2019-04-03T01:55:20.420Z,50.65
2019-04-03T01:57:47.210Z,50.64
2019-04-03T02:00:14.019Z,50.62
2019-04-03T02:02:40.735Z,50.64
2019-04-03T02:05:07.650Z,50.72
2019-04-03T02:07:34.319Z,50.63
2019-04-03T02:10:00.906Z,50.66
2019-04-03T02:12:27.702Z,50.73
2019-04-03T02:14:54.219Z,50.61
2019-04-03T02:17:21.829Z,50.59
2019-04-03T02:19:49.025Z,50.80
2019-04-03T02:22:15.645Z,50.93
2019-04-03T02:24:42.135Z,50.69
2019-04-03T02:27:08.668Z,50.84
2019-04-03T02:29:35.339Z,50.90
2019-04-03T02:32:01.914Z,50.85
2019-04-03T02:34:28.212Z,50.85
2019-04-03T02:36:54.744Z,50.74
2019-04-03T02:39:21.105Z,50.80
2019-04-03T02:41:47.733Z,50.77
2019-04-03T02:44:14.180Z,50.89
2019-04-03T02:46:40.880Z,51.08
2019-04-03T02:49:10.331Z,51.28
2019-04-03T02:51:35.478Z,51.26
2019-04-03T02:54:03.110Z,51.34
2019-04-03T02:56:30.090Z,51.31
2019-04-03T02:58:56.506Z,51.31
2019-04-03T03:01:22.981Z,51.28
2019-04-03T03:03:50.205Z,51.39
2019-04-03T03:06:17.450Z,51.13
2019-04-03T03:08:44.301Z,51.17
2019-04-03T03:11:10.984Z,51.09
2019-04-03T03:13:37.431Z,51.05
2019-04-03T03:16:04.171Z,51.13
2019-04-03T03:18:31.212Z,51.02
2019-04-03T03:21:00.325Z,51.34
2019-04-03T03:23:27.135Z,51.23
2019-04-03T03:25:55.432Z,51.24
2019-04-03T03:28:22.109Z,51.26
2019-04-03T03:30:57.840Z,51.13
2019-04-03T03:33:30.928Z,51.19
2019-04-03T03:35:48.960Z,51.16
2019-04-03T03:38:15.797Z,51.15
2019-04-03T03:40:42.985Z,51.18
2019-04-03T03:43:09.666Z,51.21
2019-04-03T03:45:37.050Z,51.39
2019-04-03T03:48:08.722Z,51.40
2019-04-03T03:50:35.123Z,51.53
2019-04-03T03:53:01.810Z,51.47
2019-04-03T03:55:29.218Z,51.52
2019-04-03T03:57:56.609Z,51.67
2019-04-03T04:00:24.250Z,51.74
2019-04-03T04:02:52.224Z,52.20
2019-04-03T04:05:21.437Z,52.51
2019-04-03T04:07:47.939Z,52.46
2019-04-03T04:10:14.932Z,52.73
2019-04-03T04:12:42.634Z,53.28
2019-04-03T04:15:09.751Z,52.99
2019-04-03T04:17:36.472Z,52.96
2019-04-03T04:20:06.254Z,53.56
2019-04-03T04:22:33.861Z,53.47
2019-04-03T04:25:02.477Z,53.44
2019-04-03T04:27:28.888Z,53.62
2019-04-03T04:29:56.007Z,54.01
2019-04-03T04:32:22.323Z,54.07
2019-04-03T04:34:50.204Z,54.39
2019-04-03T04:37:17.295Z,54.61
2019-04-03T04:39:43.662Z,54.54
2019-04-03T04:42:10.185Z,54.66
2019-04-03T04:44:37.070Z,54.62
2019-04-03T04:47:03.632Z,54.98
2019-04-03T04:49:30.034Z,54.75
2019-04-03T04:51:57.051Z,54.70
2019-04-03T04:54:24.023Z,54.16
2019-04-03T04:56:50.431Z,54.16
2019-04-03T04:59:16.910Z,53.98
2019-04-03T05:01:43.399Z,53.61
2019-04-03T05:04:09.812Z,53.29
2019-04-03T05:06:36.768Z,53.08
2019-04-03T05:09:05.339Z,52.72
2019-04-03T05:11:31.997Z,52.58
2019-04-03T05:13:58.491Z,52.30
2019-04-03T05:16:25.621Z,52.53
2019-04-03T05:18:52.644Z,52.26
2019-04-03T05:21:20.918Z,52.17
2019-04-03T05:23:47.883Z,51.76
2019-04-03T05:26:14.304Z,51.74
2019-04-03T05:28:53.308Z,51.68
2019-04-03T05:31:09.174Z,51.87
2019-04-03T05:33:35.758Z,51.48
2019-04-03T05:36:02.375Z,51.21
2019-04-03T05:38:28.951Z,51.58
2019-04-03T05:40:56.481Z,51.77
2019-04-03T05:43:23.673Z,51.68
2019-04-03T05:45:50.182Z,51.68
2019-04-03T05:48:18.573Z,51.58
2019-04-03T05:50:45.254Z,51.75
2019-04-03T05:53:12.282Z,51.12
2019-04-03T05:55:40.402Z,51.40
2019-04-03T05:58:07.367Z,51.00
2019-04-03T06:00:33.946Z,50.98
2019-04-03T06:03:00.326Z,50.31
2019-04-03T06:05:26.818Z,50.23
2019-04-03T06:07:53.223Z,49.68
2019-04-03T06:10:19.904Z,49.47
2019-04-03T06:12:46.688Z,48.34
2019-04-03T06:15:15.256Z,48.63
2019-04-03T06:17:41.750Z,48.08
2019-04-03T06:20:11.224Z,46.99
2019-04-03T06:22:37.394Z,46.42
2019-04-03T06:25:05.751Z,46.11
2019-04-03T06:27:32.300Z,45.82
2019-04-03T06:29:58.675Z,45.06
2019-04-03T06:32:25.190Z,44.47
2019-04-03T06:34:51.667Z,45.19
2019-04-03T06:37:18.101Z,44.63
2019-04-03T06:39:44.734Z,43.50
2019-04-03T06:42:13.044Z,43.34
2019-04-03T06:44:39.575Z,43.04
2019-04-03T06:47:05.967Z,42.81
2019-04-03T06:49:32.419Z,43.24
2019-04-03T06:51:59.008Z,43.64
2019-04-03T06:54:25.381Z,42.50
2019-04-03T06:56:52.925Z,42.53
2019-04-03T06:59:19.583Z,42.04
2019-04-03T07:01:46.190Z,41.43
2019-04-03T07:04:12.678Z,40.94
2019-04-03T07:06:39.703Z,40.37
2019-04-03T07:09:06.878Z,40.15
2019-04-03T07:11:33.289Z,39.57
2019-04-03T07:14:00.030Z,39.58
2019-04-03T07:16:28.566Z,39.27
2019-04-03T07:18:55.114Z,39.48
2019-04-03T07:21:22.751Z,38.60
2019-04-03T07:23:50.105Z,37.85
2019-04-03T07:26:16.700Z,38.24
2019-04-03T07:28:43.074Z,37.67
2019-04-03T07:31:09.694Z,35.78
2019-04-03T07:33:36.163Z,33.67
2019-04-03T07:36:03.172Z,34.66
2019-04-03T07:38:29.668Z,34.83
2019-04-03T07:40:56.227Z,35.12
2019-04-03T07:43:22.674Z,35.77
2019-04-03T07:45:49.311Z,34.29
2019-04-03T07:48:16.143Z,36.94
2019-04-03T07:50:43.059Z,33.79
2019-04-03T07:53:09.524Z,35.24
2019-04-03T07:55:36.070Z,35.67
2019-04-03T07:58:02.809Z,35.83
2019-04-03T08:00:29.614Z,35.17
2019-04-03T08:02:56.392Z,36.57
2019-04-03T08:05:23.038Z,37.21
2019-04-03T08:07:49.646Z,37.25
2019-04-03T08:10:16.508Z,37.50
2019-04-03T08:12:42.987Z,37.73
2019-04-03T08:15:12.644Z,37.33
2019-04-03T08:17:38.063Z,37.60
2019-04-03T08:20:07.603Z,37.55
2019-04-03T08:22:34.100Z,36.88
2019-04-03T08:25:01.024Z,35.73
2019-04-03T08:27:27.886Z,36.23
2019-04-03T08:29:54.581Z,35.59
2019-04-03T08:32:21.267Z,35.78
2019-04-03T08:34:47.650Z,36.36
2019-04-03T08:37:14.077Z,36.94
2019-04-03T08:39:40.879Z,36.71
2019-04-03T08:42:07.816Z,35.39
2019-04-03T08:44:35.719Z,33.93
2019-04-03T08:47:03.296Z,35.72
2019-04-03T08:49:30.483Z,36.07
2019-04-03T08:51:57.201Z,35.01
2019-04-03T08:54:23.899Z,34.73
2019-04-03T08:56:50.387Z,34.13
2019-04-03T08:59:17.162Z,33.58
2019-04-03T09:01:43.703Z,32.92
2019-04-03T09:04:10.398Z,33.34
2019-04-03T09:06:37.433Z,33.71
2019-04-03T09:09:08.793Z,33.61
2019-04-03T09:11:36.274Z,33.87
2019-04-03T09:14:03.916Z,33.37
2019-04-03T09:16:31.700Z,31.70
2019-04-03T09:18:59.037Z,32.59
2019-04-03T09:21:25.582Z,33.25
2019-04-03T09:23:52.445Z,32.45
2019-04-03T09:26:18.955Z,32.49
2019-04-03T09:28:45.599Z,30.69
2019-04-03T09:31:12.314Z,32.56
2019-04-03T09:33:38.684Z,30.20
2019-04-03T09:36:05.265Z,31.99
2019-04-03T09:38:31.904Z,31.47
2019-04-03T09:40:58.808Z,31.31
2019-04-03T09:43:25.247Z,31.74
2019-04-03T09:45:52.049Z,31.21
2019-04-03T09:48:18.601Z,32.21
2019-04-03T09:50:46.360Z,31.23
2019-04-03T09:53:13.772Z,30.73
2019-04-03T09:55:40.196Z,31.81
2019-04-03T09:58:06.866Z,31.54
2019-04-03T10:00:33.646Z,31.95
2019-04-03T10:03:00.324Z,31.47
2019-04-03T10:05:28.989Z,31.08
2019-04-03T10:07:55.167Z,31.84
2019-04-03T10:10:25.492Z,31.63
2019-04-03T10:12:53.619Z,30.75
2019-04-03T10:15:19.534Z,31.45
2019-04-03T10:17:46.551Z,30.54
2019-04-03T10:20:16.493Z,30.88
2019-04-03T10:22:42.943Z,31.59
2019-04-03T10:25:10.408Z,32.25
2019-04-03T10:27:37.034Z,31.26
2019-04-03T10:30:10.665Z,31.12
2019-04-03T10:32:37.756Z,30.80
2019-04-03T10:35:07.360Z,31.29
2019-04-03T10:37:34.966Z,30.72
2019-04-03T10:40:02.451Z,30.78
2019-04-03T10:42:31.159Z,29.53
2019-04-03T10:44:57.790Z,29.74
2019-04-03T10:47:30.169Z,31.01
2019-04-03T10:49:52.738Z,31.08
2019-04-03T10:52:19.396Z,29.63
2019-04-03T10:54:46.798Z,30.38
2019-04-03T10:57:14.051Z,29.41
2019-04-03T10:59:40.707Z,30.66
2019-04-03T11:02:07.476Z,30.91
2019-04-03T11:04:34.023Z,30.94
2019-04-03T11:07:00.693Z,31.16
2019-04-03T11:09:27.286Z,30.92
2019-04-03T11:11:54.308Z,30.86
2019-04-03T11:14:21.004Z,31.22
2019-04-03T11:16:47.417Z,31.80
2019-04-03T11:19:13.833Z,31.19
2019-04-03T11:21:43.338Z,31.55
2019-04-03T11:24:09.112Z,31.91
2019-04-03T11:26:36.101Z,31.28
2019-04-03T11:29:03.004Z,31.46
2019-04-03T11:31:32.872Z,31.52
2019-04-03T11:33:58.377Z,31.70
2019-04-03T11:36:29.422Z,31.43
2019-04-03T11:38:53.508Z,32.08
2019-04-03T11:41:22.948Z,31.40
2019-04-03T11:43:48.765Z,31.62
2019-04-03T11:46:15.514Z,31.63
2019-04-03T11:48:43.412Z,31.03
2019-04-03T11:51:10.890Z,31.98
2019-04-03T11:53:37.458Z,31.15
2019-04-03T11:56:04.264Z,30.92
2019-04-03T11:58:30.952Z,31.33
2019-04-03T12:00:57.722Z,31.71
2019-04-03T12:03:24.243Z,31.40
2019-04-03T12:05:51.427Z,31.71
2019-04-03T12:08:17.988Z,31.31
2019-04-03T12:10:44.664Z,31.21
2019-04-03T12:13:14.021Z,30.99
2019-04-03T12:15:40.092Z,30.94
2019-04-03T12:18:06.653Z,29.83
2019-04-03T12:20:33.138Z,30.04
2019-04-03T12:22:59.686Z,29.30
2019-04-03T12:25:26.379Z,30.31
2019-04-03T12:27:53.026Z,30.69
2019-04-03T12:30:19.843Z,30.36
2019-04-03T12:32:48.928Z,30.13
2019-04-03T12:35:15.087Z,29.58
2019-04-03T12:37:41.894Z,29.71
2019-04-03T12:40:10.392Z,29.56
2019-04-03T12:42:36.888Z,29.55
2019-04-03T12:45:06.234Z,29.19
2019-04-03T12:47:32.747Z,29.40
2019-04-03T12:49:59.810Z,29.41
2019-04-03T12:52:26.524Z,30.18
2019-04-03T12:54:54.291Z,29.52
2019-04-03T12:57:21.209Z,28.80
2019-04-03T12:59:48.175Z,30.55
2019-04-03T13:02:14.904Z,29.58
2019-04-03T13:04:41.613Z,30.85
2019-04-03T13:07:08.773Z,30.32
2019-04-03T13:09:37.969Z,31.40
2019-04-03T13:12:04.872Z,30.58
2019-04-03T13:14:32.698Z,30.46
2019-04-03T13:16:59.794Z,31.14
2019-04-03T13:19:26.564Z,31.27
2019-04-03T13:21:53.203Z,30.74
2019-04-03T13:24:20.248Z,31.71
2019-04-03T13:26:47.164Z,30.77
2019-04-03T13:29:14.186Z,32.36
2019-04-03T13:31:40.811Z,30.14
2019-04-03T13:34:09.760Z,33.18
2019-04-03T13:36:36.663Z,32.12
2019-04-03T13:39:05.767Z,32.06
2019-04-03T13:41:34.092Z,31.64
2019-04-03T13:44:00.454Z,31.12
2019-04-03T13:46:27.082Z,30.33
2019-04-03T13:48:53.710Z,30.78
2019-04-03T13:51:20.283Z,31.60
2019-04-03T13:53:47.198Z,31.07
2019-04-03T13:56:13.682Z,31.17
2019-04-03T13:58:40.548Z,31.08
2019-04-03T14:01:09.372Z,30.10
2019-04-03T14:03:35.504Z,30.62
2019-04-03T14:06:04.148Z,30.49
2019-04-03T14:08:30.955Z,31.14
2019-04-03T14:10:58.767Z,30.59
2019-04-03T14:13:25.529Z,30.67
2019-04-03T14:15:54.753Z,30.45
2019-04-03T14:18:20.430Z,30.60
2019-04-03T14:20:50.138Z,30.84
2019-04-03T14:23:15.476Z,31.03
2019-04-03T14:25:42.095Z,31.14
2019-04-03T14:28:09.132Z,31.36
2019-04-03T14:30:36.016Z,31.59
2019-04-03T14:33:02.987Z,32.28
2019-04-03T14:37:59.443Z,32.13
2019-04-03T14:40:26.132Z,31.88
2019-04-03T14:42:52.932Z,31.71
2019-04-03T14:45:19.306Z,31.82
2019-04-03T14:47:46.380Z,32.26
2019-04-03T14:50:13.828Z,32.22
2019-04-03T14:52:40.278Z,32.71
2019-04-03T14:55:17.690Z,32.66
2019-04-03T14:57:35.941Z,32.56
2019-04-03T15:00:23.350Z,33.17
2019-04-03T15:02:34.835Z,32.80
2019-04-03T15:05:01.712Z,32.64
2019-04-03T15:07:28.305Z,33.00
2019-04-03T15:09:54.916Z,32.89
2019-04-03T15:12:21.430Z,32.86
2019-04-03T15:14:48.169Z,32.99
2019-04-03T15:21:37.776Z,32.90
2019-04-03T15:24:04.277Z,33.28
2019-04-03T15:26:30.807Z,33.35
2019-04-03T15:28:57.180Z,33.99
2019-04-03T15:31:24.621Z,33.36
2019-04-03T15:33:51.151Z,33.32
2019-04-03T15:36:17.600Z,33.70
2019-04-03T15:38:45.663Z,33.96
2019-04-03T15:41:12.546Z,33.70
2019-04-03T15:43:38.863Z,33.95
2019-04-03T15:46:06.463Z,34.33
2019-04-03T15:48:33.405Z,33.89
2019-04-03T15:51:00.363Z,34.08
2019-04-03T15:53:27.152Z,34.46
2019-04-03T15:55:54.443Z,34.82
2019-04-03T15:58:22.843Z,34.34
2019-04-03T16:00:49.751Z,34.26
2019-04-03T16:03:17.542Z,34.24
2019-04-03T16:05:44.839Z,34.51
2019-04-03T16:08:12.900Z,34.37
2019-04-03T16:10:40.627Z,34.80
2019-04-03T16:13:07.603Z,34.73
2019-04-03T16:15:33.980Z,35.12
2019-04-03T16:18:01.160Z,35.06
2019-04-03T16:20:27.923Z,35.11
2019-04-03T16:22:54.854Z,35.37
2019-04-03T16:25:21.379Z,35.73
2019-04-03T16:27:48.735Z,35.27
2019-04-03T16:30:17.302Z,35.68
2019-04-03T16:32:44.618Z,35.55
2019-04-03T16:35:14.565Z,35.35
2019-04-03T16:37:41.576Z,35.21
2019-04-03T16:40:09.102Z,34.98
2019-04-03T16:42:35.941Z,35.04
2019-04-03T16:45:08.494Z,35.17
2019-04-03T16:47:35.412Z,35.19
2019-04-03T16:50:04.184Z,35.23
2019-04-03T16:52:30.480Z,35.20
2019-04-03T16:54:57.420Z,35.23
2019-04-03T16:57:24.003Z,35.40
2019-04-03T16:59:50.523Z,35.18
2019-04-03T17:02:18.888Z,35.16
2019-04-03T17:04:45.749Z,35.23
2019-04-03T17:07:12.154Z,35.61
2019-04-03T17:09:39.429Z,35.71
2019-04-03T17:12:06.145Z,35.57
2019-04-03T17:14:33.094Z,35.81
2019-04-03T17:16:59.562Z,35.74
2019-04-03T17:19:26.121Z,35.92
2019-04-03T17:21:52.707Z,35.93
2019-04-03T17:31:48.374Z,36.63
2019-04-03T17:34:14.843Z,36.48
2019-04-03T17:36:41.950Z,36.68
2019-04-03T17:39:08.858Z,36.75
2019-04-03T17:41:36.111Z,36.85
2019-04-03T17:44:04.360Z,36.87
2019-04-03T17:46:30.656Z,37.38
2019-04-03T17:48:57.127Z,37.14
2019-04-03T17:51:23.499Z,37.39
2019-04-03T17:53:50.132Z,37.56
2019-04-03T17:56:16.416Z,37.61
2019-04-03T17:58:42.828Z,37.98
2019-04-03T18:01:09.245Z,37.94
2019-04-03T18:03:35.818Z,38.21
2019-04-03T18:06:03.261Z,38.40
2019-04-03T18:08:32.504Z,38.33
2019-04-03T18:10:57.924Z,38.62
2019-04-03T18:13:24.268Z,38.72
2019-04-03T18:15:50.664Z,38.58
2019-04-03T18:18:17.680Z,38.90
2019-04-03T18:20:44.730Z,39.07
2019-04-03T18:23:12.377Z,39.03
2019-04-03T18:25:38.689Z,39.36
2019-04-03T18:28:05.561Z,39.39
2019-04-03T18:30:32.391Z,39.44
2019-04-03T18:32:58.984Z,39.28
2019-04-03T18:35:26.279Z,39.41
2019-04-03T18:37:52.889Z,39.29
2019-04-03T18:40:19.754Z,39.52
2019-04-03T18:42:49.355Z,39.82
2019-04-03T18:45:25.031Z,39.65
2019-04-03T18:47:46.083Z,39.88
2019-04-03T18:50:12.726Z,39.60
2019-04-03T18:52:39.496Z,39.73
2019-04-03T18:55:06.606Z,39.83
2019-04-03T18:57:33.397Z,39.91
2019-04-03T19:00:00.688Z,39.71
2019-04-03T19:02:27.323Z,39.99
2019-04-03T19:05:01.920Z,40.04
2019-04-03T19:07:22.135Z,40.01
2019-04-03T19:09:49.915Z,39.94
2019-04-03T19:12:16.987Z,40.24
2019-04-03T19:14:43.371Z,40.14
2019-04-03T19:17:10.076Z,40.46
2019-04-03T19:19:36.364Z,40.16
2019-04-03T19:22:03.094Z,40.50
2019-04-03T19:24:29.595Z,40.58
2019-04-03T19:26:55.891Z,40.53
2019-04-03T19:29:22.302Z,40.66
2019-04-03T19:31:48.744Z,40.65
2019-04-03T19:34:19.624Z,40.78
2019-04-03T19:36:43.811Z,40.65
2019-04-03T19:39:10.224Z,40.63
2019-04-03T19:41:36.612Z,40.66
2019-04-03T19:44:03.576Z,40.43
2019-04-03T19:46:30.183Z,40.57
2019-04-03T19:48:57.345Z,40.50
2019-04-03T19:51:23.863Z,40.65
2019-04-03T19:53:59.051Z,40.55
2019-04-03T19:56:18.735Z,40.51
2019-04-03T19:58:45.422Z,40.51
2019-04-03T20:01:11.997Z,40.72
2019-04-03T20:03:38.788Z,40.77
2019-04-03T20:06:05.375Z,40.86
2019-04-03T20:08:32.028Z,40.94
2019-04-03T20:10:58.524Z,40.90
2019-04-03T20:13:27.856Z,41.28
2019-04-03T20:15:54.530Z,41.37
2019-04-03T20:18:21.191Z,41.43
2019-04-03T20:20:47.548Z,41.54
2019-04-03T20:23:13.938Z,41.54
2019-04-03T20:25:40.338Z,41.75
2019-04-03T20:28:06.918Z,41.93
2019-04-03T20:30:33.792Z,41.99
2019-04-03T20:33:00.412Z,42.24
2019-04-03T20:35:27.102Z,42.28
2019-04-03T20:37:56.774Z,42.43
2019-04-03T20:40:21.976Z,42.08
2019-04-03T20:42:48.429Z,42.35
2019-04-03T20:45:15.043Z,42.20
2019-04-03T20:47:41.686Z,41.90
2019-04-03T20:50:09.039Z,41.94
2019-04-03T20:52:35.603Z,42.02
2019-04-03T20:55:03.917Z,42.16
2019-04-03T20:57:31.088Z,41.96
2019-04-03T21:00:02.962Z,41.81
2019-04-03T21:02:27.036Z,41.77
2019-04-03T21:04:53.711Z,41.89
2019-04-03T21:07:20.140Z,41.69
2019-04-03T21:09:46.747Z,41.51
2019-04-03T21:12:13.620Z,41.79
2019-04-03T21:14:41.515Z,41.62
2019-04-03T21:17:08.351Z,41.25
2019-04-03T21:19:34.746Z,41.35
2019-04-03T21:22:01.175Z,41.15
2019-04-03T21:24:27.570Z,41.31
2019-04-03T21:26:53.965Z,41.22
2019-04-03T21:29:20.422Z,41.00
2019-04-03T21:31:46.907Z,41.13
2019-04-03T21:34:13.518Z,40.85
2019-04-03T21:36:39.835Z,40.85
2019-04-03T21:39:06.768Z,41.10
2019-04-03T21:41:33.409Z,41.05
2019-04-03T21:44:00.511Z,40.78
2019-04-03T21:46:27.271Z,41.32
2019-04-03T21:48:53.747Z,41.12
2019-04-03T21:51:20.801Z,41.11
2019-04-03T21:53:47.774Z,40.95
2019-04-03T21:56:14.327Z,40.88
2019-04-03T21:58:40.649Z,41.02
2019-04-03T22:01:17.913Z,41.02
2019-04-03T22:03:45.151Z,41.23
2019-04-03T22:06:11.917Z,40.94
2019-04-03T22:08:38.572Z,41.23
2019-04-03T22:11:05.502Z,40.98
2019-04-03T22:13:32.042Z,41.15
2019-04-03T22:15:58.634Z,41.15
2019-04-03T22:18:25.073Z,41.04
2019-04-03T22:20:51.590Z,41.13
2019-04-03T22:23:18.304Z,41.03
2019-04-03T22:25:44.787Z,41.01
2019-04-03T22:28:13.207Z,41.14
2019-04-03T22:30:39.603Z,40.76
2019-04-03T22:33:06.028Z,40.79
2019-04-03T22:35:32.776Z,41.44
2019-04-03T22:37:59.306Z,40.74
2019-04-03T22:40:25.825Z,40.93
2019-04-03T22:42:59.736Z,41.09
2019-04-03T22:45:26.181Z,41.12
2019-04-03T22:47:54.290Z,41.31
2019-04-03T22:50:20.911Z,41.17
2019-04-03T22:52:47.470Z,40.98
2019-04-03T22:55:14.809Z,41.06
2019-04-03T22:57:41.943Z,41.18
2019-04-03T23:00:08.526Z,41.26
2019-04-03T23:02:35.293Z,41.34
2019-04-03T23:05:01.913Z,41.32
2019-04-03T23:07:29.082Z,41.38
2019-04-03T23:09:56.744Z,41.33
2019-04-03T23:12:24.393Z,41.46
2019-04-03T23:14:51.606Z,41.40
2019-04-03T23:17:18.376Z,41.33
2019-04-03T23:19:44.895Z,41.41
2019-04-03T23:22:11.634Z,41.41
2019-04-03T23:24:38.419Z,40.99
2019-04-03T23:27:05.273Z,40.99
2019-04-03T23:29:32.040Z,40.85
2019-04-03T23:31:59.073Z,40.79
2019-04-03T23:34:25.951Z,40.77
2019-04-03T23:36:54.282Z,40.91
2019-04-03T23:39:21.676Z,41.00
2019-04-03T23:41:48.631Z,40.84
2019-04-03T23:44:15.414Z,40.94
2019-04-03T23:46:45.290Z,41.05
2019-04-03T23:49:10.942Z,40.69
2019-04-03T23:51:37.864Z,40.69
2019-04-03T23:54:04.726Z,41.04
2019-04-03T23:56:31.583Z,40.78
2019-04-03T23:58:58.579Z,40.94
